sensor_id;sensor_type;location;lat;lon;timestamp;temperature;humidity
34135;DHT22;20410;55.578;12.968;2023-04-16T00:00:06;10.20;1.00
34135;DHT22;20410;55.578;12.968;2023-04-16T00:02:32;10.30;1.00
34135;DHT22;20410;55.578;12.968;2023-04-16T00:04:58;10.30;1.00
34135;DHT22;20410;55.578;12.968;2023-04-16T00:07:23;10.30;1.00
34135;DHT22;20410;55.578;12.968;2023-04-16T00:09:49;10.40;1.00
34135;DHT22;20410;55.578;12.968;2023-04-16T00:12:15;10.40;1.00
34135;DHT22;20410;55.578;12.968;2023-04-16T00:14:40;10.30;1.00
34135;DHT22;20410;55.578;12.968;2023-04-16T00:17:08;10.30;1.00
34135;DHT22;20410;55.578;12.968;2023-04-16T00:19:33;10.30;1.00
34135;DHT22;20410;55.578;12.968;2023-04-16T00:21:59;10.30;1.00
34135;DHT22;20410;55.578;12.968;2023-04-16T00:24:24;10.30;1.00
34135;DHT22;20410;55.578;12.968;2023-04-16T00:26:50;10.20;1.00
34135;DHT22;20410;55.578;12.968;2023-04-16T00:29:15;10.20;1.00
34135;DHT22;20410;55.578;12.968;2023-04-16T00:31:41;10.20;1.00
34135;DHT22;20410;55.578;12.968;2023-04-16T00:34:07;10.20;1.00
34135;DHT22;20410;55.578;12.968;2023-04-16T00:36:32;10.10;1.00
34135;DHT22;20410;55.578;12.968;2023-04-16T00:38:58;10.20;1.00
34135;DHT22;20410;55.578;12.968;2023-04-16T00:41:23;10.10;1.00
34135;DHT22;20410;55.578;12.968;2023-04-16T00:43:49;10.10;1.00
34135;DHT22;20410;55.578;12.968;2023-04-16T00:46:15;10.10;1.00
34135;DHT22;20410;55.578;12.968;2023-04-16T00:48:42;10.00;1.00
34135;DHT22;20410;55.578;12.968;2023-04-16T00:51:08;10.10;1.00
34135;DHT22;20410;55.578;12.968;2023-04-16T00:53:34;10.00;1.00
34135;DHT22;20410;55.578;12.968;2023-04-16T00:56:04;10.00;1.00
34135;DHT22;20410;55.578;12.968;2023-04-16T00:58:31;10.10;1.00
34135;DHT22;20410;55.578;12.968;2023-04-16T01:00:57;10.10;1.00
34135;DHT22;20410;55.578;12.968;2023-04-16T01:03:30;10.10;1.00
34135;DHT22;20410;55.578;12.968;2023-04-16T01:05:58;10.00;1.00
34135;DHT22;20410;55.578;12.968;2023-04-16T01:08:25;10.00;1.00
34135;DHT22;20410;55.578;12.968;2023-04-16T01:10:50;10.00;1.00
34135;DHT22;20410;55.578;12.968;2023-04-16T01:13:16;10.00;1.00
34135;DHT22;20410;55.578;12.968;2023-04-16T01:15:41;10.00;1.00
34135;DHT22;20410;55.578;12.968;2023-04-16T01:18:17;10.00;1.00
34135;DHT22;20410;55.578;12.968;2023-04-16T01:20:43;10.00;1.00
34135;DHT22;20410;55.578;12.968;2023-04-16T01:23:09;10.00;1.00
34135;DHT22;20410;55.578;12.968;2023-04-16T01:25:35;10.00;1.00
34135;DHT22;20410;55.578;12.968;2023-04-16T01:28:01;10.00;1.00
34135;DHT22;20410;55.578;12.968;2023-04-16T01:30:26;10.10;1.00
34135;DHT22;20410;55.578;12.968;2023-04-16T01:32:52;10.10;1.00
34135;DHT22;20410;55.578;12.968;2023-04-16T01:35:18;10.10;1.00
34135;DHT22;20410;55.578;12.968;2023-04-16T01:37:43;10.10;1.00
34135;DHT22;20410;55.578;12.968;2023-04-16T01:40:09;10.10;1.00
34135;DHT22;20410;55.578;12.968;2023-04-16T01:42:36;10.10;1.00
34135;DHT22;20410;55.578;12.968;2023-04-16T01:45:02;10.10;1.00
34135;DHT22;20410;55.578;12.968;2023-04-16T01:47:27;10.10;1.00
34135;DHT22;20410;55.578;12.968;2023-04-16T01:49:53;10.10;1.00
34135;DHT22;20410;55.578;12.968;2023-04-16T01:52:19;10.10;1.00
34135;DHT22;20410;55.578;12.968;2023-04-16T01:54:44;10.00;1.00
34135;DHT22;20410;55.578;12.968;2023-04-16T01:57:10;10.00;1.00
34135;DHT22;20410;55.578;12.968;2023-04-16T01:59:35;10.00;1.00
34135;DHT22;20410;55.578;12.968;2023-04-16T02:02:07;10.00;1.00
34135;DHT22;20410;55.578;12.968;2023-04-16T02:04:39;10.00;1.00
34135;DHT22;20410;55.578;12.968;2023-04-16T02:07:06;9.90;1.00
34135;DHT22;20410;55.578;12.968;2023-04-16T02:09:34;10.00;1.00
34135;DHT22;20410;55.578;12.968;2023-04-16T02:11:59;9.90;1.00
34135;DHT22;20410;55.578;12.968;2023-04-16T02:14:26;9.90;1.00
34135;DHT22;20410;55.578;12.968;2023-04-16T02:16:52;9.90;1.00
34135;DHT22;20410;55.578;12.968;2023-04-16T02:19:18;9.80;1.00
34135;DHT22;20410;55.578;12.968;2023-04-16T02:21:43;9.80;1.00
34135;DHT22;20410;55.578;12.968;2023-04-16T02:24:09;9.70;1.00
34135;DHT22;20410;55.578;12.968;2023-04-16T02:26:34;9.70;1.00
34135;DHT22;20410;55.578;12.968;2023-04-16T02:29:00;9.80;1.00
34135;DHT22;20410;55.578;12.968;2023-04-16T02:31:26;9.80;1.00
34135;DHT22;20410;55.578;12.968;2023-04-16T02:33:53;9.80;1.00
34135;DHT22;20410;55.578;12.968;2023-04-16T02:36:18;9.80;1.00
34135;DHT22;20410;55.578;12.968;2023-04-16T02:38:44;9.80;1.00
34135;DHT22;20410;55.578;12.968;2023-04-16T02:41:10;9.80;1.00
34135;DHT22;20410;55.578;12.968;2023-04-16T02:43:35;9.80;1.00
34135;DHT22;20410;55.578;12.968;2023-04-16T02:46:01;9.90;1.00
34135;DHT22;20410;55.578;12.968;2023-04-16T02:48:27;9.90;1.00
34135;DHT22;20410;55.578;12.968;2023-04-16T02:50:52;9.90;1.00
34135;DHT22;20410;55.578;12.968;2023-04-16T02:53:18;9.90;1.00
34135;DHT22;20410;55.578;12.968;2023-04-16T02:55:51;9.80;1.00
34135;DHT22;20410;55.578;12.968;2023-04-16T02:58:17;9.90;1.00
34135;DHT22;20410;55.578;12.968;2023-04-16T03:00:43;9.80;1.00
34135;DHT22;20410;55.578;12.968;2023-04-16T03:03:09;9.80;1.00
34135;DHT22;20410;55.578;12.968;2023-04-16T03:05:34;9.80;1.00
34135;DHT22;20410;55.578;12.968;2023-04-16T03:08:00;9.80;1.00
34135;DHT22;20410;55.578;12.968;2023-04-16T03:10:25;9.80;1.00
34135;DHT22;20410;55.578;12.968;2023-04-16T03:12:51;9.70;1.00
34135;DHT22;20410;55.578;12.968;2023-04-16T03:15:17;9.70;1.00
34135;DHT22;20410;55.578;12.968;2023-04-16T03:17:42;9.70;1.00
34135;DHT22;20410;55.578;12.968;2023-04-16T03:20:08;9.60;1.00
34135;DHT22;20410;55.578;12.968;2023-04-16T03:22:34;9.60;1.00
34135;DHT22;20410;55.578;12.968;2023-04-16T03:25:00;9.50;1.00
34135;DHT22;20410;55.578;12.968;2023-04-16T03:27:25;9.50;1.00
34135;DHT22;20410;55.578;12.968;2023-04-16T03:29:51;9.50;1.00
34135;DHT22;20410;55.578;12.968;2023-04-16T03:32:16;9.50;1.00
34135;DHT22;20410;55.578;12.968;2023-04-16T03:34:42;9.40;1.00
34135;DHT22;20410;55.578;12.968;2023-04-16T03:37:08;9.40;1.00
34135;DHT22;20410;55.578;12.968;2023-04-16T03:39:36;9.30;1.00
34135;DHT22;20410;55.578;12.968;2023-04-16T03:42:02;9.30;1.00
34135;DHT22;20410;55.578;12.968;2023-04-16T03:44:28;9.40;1.00
34135;DHT22;20410;55.578;12.968;2023-04-16T03:46:54;9.40;1.00
34135;DHT22;20410;55.578;12.968;2023-04-16T03:49:19;9.40;1.00
34135;DHT22;20410;55.578;12.968;2023-04-16T03:51:45;9.40;1.00
34135;DHT22;20410;55.578;12.968;2023-04-16T03:54:11;9.40;1.00
34135;DHT22;20410;55.578;12.968;2023-04-16T03:56:38;9.30;1.00
34135;DHT22;20410;55.578;12.968;2023-04-16T03:59:04;9.20;1.00
34135;DHT22;20410;55.578;12.968;2023-04-16T04:01:29;9.20;1.00
34135;DHT22;20410;55.578;12.968;2023-04-16T04:03:55;9.20;1.00
34135;DHT22;20410;55.578;12.968;2023-04-16T04:06:20;9.20;1.00
34135;DHT22;20410;55.578;12.968;2023-04-16T04:08:46;9.20;1.00
34135;DHT22;20410;55.578;12.968;2023-04-16T04:11:11;9.10;1.00
34135;DHT22;20410;55.578;12.968;2023-04-16T04:13:37;9.10;1.00
34135;DHT22;20410;55.578;12.968;2023-04-16T04:16:03;9.10;1.00
34135;DHT22;20410;55.578;12.968;2023-04-16T04:18:29;9.10;1.00
34135;DHT22;20410;55.578;12.968;2023-04-16T04:20:55;9.10;1.00
34135;DHT22;20410;55.578;12.968;2023-04-16T04:23:21;9.00;1.00
34135;DHT22;20410;55.578;12.968;2023-04-16T04:25:47;9.00;1.00
34135;DHT22;20410;55.578;12.968;2023-04-16T04:28:12;9.00;1.00
34135;DHT22;20410;55.578;12.968;2023-04-16T04:30:38;9.00;1.00
34135;DHT22;20410;55.578;12.968;2023-04-16T04:33:03;8.90;1.00
34135;DHT22;20410;55.578;12.968;2023-04-16T04:35:29;9.00;1.00
34135;DHT22;20410;55.578;12.968;2023-04-16T04:37:54;9.00;1.00
34135;DHT22;20410;55.578;12.968;2023-04-16T04:40:20;9.00;1.00
34135;DHT22;20410;55.578;12.968;2023-04-16T04:42:45;9.00;1.00
34135;DHT22;20410;55.578;12.968;2023-04-16T04:45:11;9.10;1.00
34135;DHT22;20410;55.578;12.968;2023-04-16T04:47:36;9.10;1.00
34135;DHT22;20410;55.578;12.968;2023-04-16T04:50:02;9.10;1.00
34135;DHT22;20410;55.578;12.968;2023-04-16T04:52:28;9.10;1.00
34135;DHT22;20410;55.578;12.968;2023-04-16T04:54:53;9.20;1.00
34135;DHT22;20410;55.578;12.968;2023-04-16T04:57:19;9.20;1.00
34135;DHT22;20410;55.578;12.968;2023-04-16T04:59:44;9.20;1.00
34135;DHT22;20410;55.578;12.968;2023-04-16T05:02:10;9.20;1.00
34135;DHT22;20410;55.578;12.968;2023-04-16T05:04:36;9.30;1.00
34135;DHT22;20410;55.578;12.968;2023-04-16T05:07:01;9.40;1.00
34135;DHT22;20410;55.578;12.968;2023-04-16T05:09:27;9.40;1.00
34135;DHT22;20410;55.578;12.968;2023-04-16T05:11:53;9.30;1.00
34135;DHT22;20410;55.578;12.968;2023-04-16T05:14:18;9.30;1.00
34135;DHT22;20410;55.578;12.968;2023-04-16T05:16:44;9.30;1.00
34135;DHT22;20410;55.578;12.968;2023-04-16T05:19:09;9.30;1.00
34135;DHT22;20410;55.578;12.968;2023-04-16T05:21:35;9.20;1.00
34135;DHT22;20410;55.578;12.968;2023-04-16T05:24:00;9.30;1.00
34135;DHT22;20410;55.578;12.968;2023-04-16T05:26:26;9.30;1.00
34135;DHT22;20410;55.578;12.968;2023-04-16T05:28:52;9.30;1.00
34135;DHT22;20410;55.578;12.968;2023-04-16T05:31:17;9.30;1.00
34135;DHT22;20410;55.578;12.968;2023-04-16T05:33:43;9.30;1.00
34135;DHT22;20410;55.578;12.968;2023-04-16T05:36:08;9.30;1.00
34135;DHT22;20410;55.578;12.968;2023-04-16T05:38:34;9.30;1.00
34135;DHT22;20410;55.578;12.968;2023-04-16T05:40:59;9.30;1.00
34135;DHT22;20410;55.578;12.968;2023-04-16T05:43:25;9.30;1.00
34135;DHT22;20410;55.578;12.968;2023-04-16T05:45:50;9.30;1.00
34135;DHT22;20410;55.578;12.968;2023-04-16T05:48:16;9.30;1.00
34135;DHT22;20410;55.578;12.968;2023-04-16T05:50:42;9.20;1.00
34135;DHT22;20410;55.578;12.968;2023-04-16T05:53:08;9.20;1.00
34135;DHT22;20410;55.578;12.968;2023-04-16T05:55:34;9.20;1.00
34135;DHT22;20410;55.578;12.968;2023-04-16T05:58:02;9.30;1.00
34135;DHT22;20410;55.578;12.968;2023-04-16T06:00:30;9.30;1.00
34135;DHT22;20410;55.578;12.968;2023-04-16T06:02:55;9.30;1.00
34135;DHT22;20410;55.578;12.968;2023-04-16T06:05:21;9.30;1.00
34135;DHT22;20410;55.578;12.968;2023-04-16T06:07:47;9.40;1.00
34135;DHT22;20410;55.578;12.968;2023-04-16T06:10:12;9.30;1.00
34135;DHT22;20410;55.578;12.968;2023-04-16T06:12:38;9.30;1.00
34135;DHT22;20410;55.578;12.968;2023-04-16T06:15:04;9.30;1.00
34135;DHT22;20410;55.578;12.968;2023-04-16T06:17:30;9.30;1.00
34135;DHT22;20410;55.578;12.968;2023-04-16T06:19:55;9.20;1.00
34135;DHT22;20410;55.578;12.968;2023-04-16T06:22:21;9.20;1.00
34135;DHT22;20410;55.578;12.968;2023-04-16T06:24:47;9.20;1.00
34135;DHT22;20410;55.578;12.968;2023-04-16T06:27:12;9.30;1.00
34135;DHT22;20410;55.578;12.968;2023-04-16T06:29:38;9.30;1.00
34135;DHT22;20410;55.578;12.968;2023-04-16T06:32:03;9.30;1.00
34135;DHT22;20410;55.578;12.968;2023-04-16T06:34:29;9.30;1.00
34135;DHT22;20410;55.578;12.968;2023-04-16T06:36:55;9.20;1.00
34135;DHT22;20410;55.578;12.968;2023-04-16T06:39:20;9.40;1.00
34135;DHT22;20410;55.578;12.968;2023-04-16T06:41:47;9.30;1.00
34135;DHT22;20410;55.578;12.968;2023-04-16T06:44:13;9.30;1.00
34135;DHT22;20410;55.578;12.968;2023-04-16T06:46:39;9.40;1.00
34135;DHT22;20410;55.578;12.968;2023-04-16T06:49:04;9.50;1.00
34135;DHT22;20410;55.578;12.968;2023-04-16T06:51:30;9.60;1.00
34135;DHT22;20410;55.578;12.968;2023-04-16T06:53:56;9.50;1.00
34135;DHT22;20410;55.578;12.968;2023-04-16T06:56:21;9.50;1.00
34135;DHT22;20410;55.578;12.968;2023-04-16T06:58:47;9.50;1.00
34135;DHT22;20410;55.578;12.968;2023-04-16T07:01:12;9.60;1.00
34135;DHT22;20410;55.578;12.968;2023-04-16T07:03:38;9.60;1.00
34135;DHT22;20410;55.578;12.968;2023-04-16T07:06:04;9.60;1.00
34135;DHT22;20410;55.578;12.968;2023-04-16T07:08:29;9.60;1.00
34135;DHT22;20410;55.578;12.968;2023-04-16T07:10:55;9.60;1.00
34135;DHT22;20410;55.578;12.968;2023-04-16T07:13:20;9.60;1.00
34135;DHT22;20410;55.578;12.968;2023-04-16T07:15:46;9.50;1.00
34135;DHT22;20410;55.578;12.968;2023-04-16T07:18:12;9.40;1.00
34135;DHT22;20410;55.578;12.968;2023-04-16T07:20:37;9.40;1.00
34135;DHT22;20410;55.578;12.968;2023-04-16T07:23:03;9.40;1.00
34135;DHT22;20410;55.578;12.968;2023-04-16T07:25:28;9.50;1.00
34135;DHT22;20410;55.578;12.968;2023-04-16T07:27:54;9.50;1.00
34135;DHT22;20410;55.578;12.968;2023-04-16T07:30:20;9.60;1.00
34135;DHT22;20410;55.578;12.968;2023-04-16T07:32:45;9.50;1.00
34135;DHT22;20410;55.578;12.968;2023-04-16T07:35:11;9.50;1.00
34135;DHT22;20410;55.578;12.968;2023-04-16T07:37:36;9.60;1.00
34135;DHT22;20410;55.578;12.968;2023-04-16T07:40:02;9.60;1.00
34135;DHT22;20410;55.578;12.968;2023-04-16T07:42:28;9.70;1.00
34135;DHT22;20410;55.578;12.968;2023-04-16T07:44:54;9.70;1.00
34135;DHT22;20410;55.578;12.968;2023-04-16T07:47:20;9.80;1.00
34135;DHT22;20410;55.578;12.968;2023-04-16T07:49:47;9.80;1.00
34135;DHT22;20410;55.578;12.968;2023-04-16T07:52:14;9.70;1.00
34135;DHT22;20410;55.578;12.968;2023-04-16T07:54:39;9.80;1.00
34135;DHT22;20410;55.578;12.968;2023-04-16T07:57:05;9.70;1.00
34135;DHT22;20410;55.578;12.968;2023-04-16T07:59:30;9.70;1.00
34135;DHT22;20410;55.578;12.968;2023-04-16T08:01:56;9.80;1.00
34135;DHT22;20410;55.578;12.968;2023-04-16T08:04:21;9.80;1.00
34135;DHT22;20410;55.578;12.968;2023-04-16T08:06:52;9.90;1.00
34135;DHT22;20410;55.578;12.968;2023-04-16T08:09:19;10.00;1.00
34135;DHT22;20410;55.578;12.968;2023-04-16T08:11:45;10.00;1.00
34135;DHT22;20410;55.578;12.968;2023-04-16T08:14:10;10.10;1.00
34135;DHT22;20410;55.578;12.968;2023-04-16T08:16:36;10.10;1.00
34135;DHT22;20410;55.578;12.968;2023-04-16T08:19:03;10.10;1.00
34135;DHT22;20410;55.578;12.968;2023-04-16T08:21:28;10.10;1.00
34135;DHT22;20410;55.578;12.968;2023-04-16T08:23:55;10.30;1.00
34135;DHT22;20410;55.578;12.968;2023-04-16T08:26:20;10.40;1.00
34135;DHT22;20410;55.578;12.968;2023-04-16T08:28:46;10.40;1.00
34135;DHT22;20410;55.578;12.968;2023-04-16T08:31:11;10.30;1.00
34135;DHT22;20410;55.578;12.968;2023-04-16T08:33:37;10.40;1.00
34135;DHT22;20410;55.578;12.968;2023-04-16T08:36:02;10.40;1.00
34135;DHT22;20410;55.578;12.968;2023-04-16T08:38:29;10.40;1.00
34135;DHT22;20410;55.578;12.968;2023-04-16T08:40:55;10.50;1.00
34135;DHT22;20410;55.578;12.968;2023-04-16T08:43:23;10.50;1.00
34135;DHT22;20410;55.578;12.968;2023-04-16T08:45:52;10.50;1.00
34135;DHT22;20410;55.578;12.968;2023-04-16T08:48:19;10.60;1.00
34135;DHT22;20410;55.578;12.968;2023-04-16T08:50:48;10.60;1.00
34135;DHT22;20410;55.578;12.968;2023-04-16T08:53:17;10.70;1.00
34135;DHT22;20410;55.578;12.968;2023-04-16T08:55:47;10.70;1.00
34135;DHT22;20410;55.578;12.968;2023-04-16T08:58:17;10.60;1.00
34135;DHT22;20410;55.578;12.968;2023-04-16T09:00:43;10.60;1.00
34135;DHT22;20410;55.578;12.968;2023-04-16T09:03:11;10.70;1.00
34135;DHT22;20410;55.578;12.968;2023-04-16T09:05:37;10.70;1.00
34135;DHT22;20410;55.578;12.968;2023-04-16T09:08:06;10.70;1.00
34135;DHT22;20410;55.578;12.968;2023-04-16T09:10:32;10.70;1.00
34135;DHT22;20410;55.578;12.968;2023-04-16T09:12:58;10.70;1.00
34135;DHT22;20410;55.578;12.968;2023-04-16T09:15:24;10.70;1.00
34135;DHT22;20410;55.578;12.968;2023-04-16T09:17:51;10.70;1.00
34135;DHT22;20410;55.578;12.968;2023-04-16T09:20:17;10.70;1.00
34135;DHT22;20410;55.578;12.968;2023-04-16T09:22:43;10.80;1.00
34135;DHT22;20410;55.578;12.968;2023-04-16T09:25:10;10.80;1.00
34135;DHT22;20410;55.578;12.968;2023-04-16T09:27:35;10.90;1.00
34135;DHT22;20410;55.578;12.968;2023-04-16T09:30:18;10.90;1.00
34135;DHT22;20410;55.578;12.968;2023-04-16T09:32:46;11.10;1.00
34135;DHT22;20410;55.578;12.968;2023-04-16T09:35:11;11.10;1.00
34135;DHT22;20410;55.578;12.968;2023-04-16T09:37:37;11.20;1.00
34135;DHT22;20410;55.578;12.968;2023-04-16T09:40:03;11.10;1.00
34135;DHT22;20410;55.578;12.968;2023-04-16T09:42:31;11.10;1.00
34135;DHT22;20410;55.578;12.968;2023-04-16T09:44:57;11.10;1.00
34135;DHT22;20410;55.578;12.968;2023-04-16T09:47:38;11.10;1.00
34135;DHT22;20410;55.578;12.968;2023-04-16T09:50:05;11.00;1.00
34135;DHT22;20410;55.578;12.968;2023-04-16T09:52:35;11.00;1.00
34135;DHT22;20410;55.578;12.968;2023-04-16T09:55:01;11.10;1.00
34135;DHT22;20410;55.578;12.968;2023-04-16T09:57:28;11.20;1.00
34135;DHT22;20410;55.578;12.968;2023-04-16T10:00:00;11.20;1.00
34135;DHT22;20410;55.578;12.968;2023-04-16T10:02:26;11.20;1.00
34135;DHT22;20410;55.578;12.968;2023-04-16T10:04:52;11.10;1.00
34135;DHT22;20410;55.578;12.968;2023-04-16T10:07:19;11.20;1.00
34135;DHT22;20410;55.578;12.968;2023-04-16T10:09:48;11.20;1.00
34135;DHT22;20410;55.578;12.968;2023-04-16T10:12:15;11.30;1.00
34135;DHT22;20410;55.578;12.968;2023-04-16T10:14:41;11.40;1.00
34135;DHT22;20410;55.578;12.968;2023-04-16T10:17:10;11.40;1.00
34135;DHT22;20410;55.578;12.968;2023-04-16T10:19:35;11.50;1.00
34135;DHT22;20410;55.578;12.968;2023-04-16T10:22:02;11.40;1.00
34135;DHT22;20410;55.578;12.968;2023-04-16T10:24:29;11.40;1.00
34135;DHT22;20410;55.578;12.968;2023-04-16T10:26:55;11.40;1.00
34135;DHT22;20410;55.578;12.968;2023-04-16T10:29:21;11.40;1.00
34135;DHT22;20410;55.578;12.968;2023-04-16T10:31:49;11.40;1.00
34135;DHT22;20410;55.578;12.968;2023-04-16T10:34:15;11.20;1.00
34135;DHT22;20410;55.578;12.968;2023-04-16T10:36:41;11.20;1.00
34135;DHT22;20410;55.578;12.968;2023-04-16T10:39:11;11.20;1.00
34135;DHT22;20410;55.578;12.968;2023-04-16T10:41:38;11.20;1.00
34135;DHT22;20410;55.578;12.968;2023-04-16T10:44:08;11.10;1.00
34135;DHT22;20410;55.578;12.968;2023-04-16T10:46:41;11.20;1.00
34135;DHT22;20410;55.578;12.968;2023-04-16T10:49:28;11.20;1.00
34135;DHT22;20410;55.578;12.968;2023-04-16T10:52:06;11.30;1.00
34135;DHT22;20410;55.578;12.968;2023-04-16T10:54:34;11.40;1.00
34135;DHT22;20410;55.578;12.968;2023-04-16T10:57:06;11.60;1.00
34135;DHT22;20410;55.578;12.968;2023-04-16T10:59:34;11.70;1.00
34135;DHT22;20410;55.578;12.968;2023-04-16T11:02:03;11.60;1.00
34135;DHT22;20410;55.578;12.968;2023-04-16T11:04:35;11.60;1.00
34135;DHT22;20410;55.578;12.968;2023-04-16T11:09:55;11.60;1.00
34135;DHT22;20410;55.578;12.968;2023-04-16T11:12:26;11.60;1.00
34135;DHT22;20410;55.578;12.968;2023-04-16T11:15:02;11.30;1.00
34135;DHT22;20410;55.578;12.968;2023-04-16T11:22:41;11.20;1.00
34135;DHT22;20410;55.578;12.968;2023-04-16T11:25:07;11.10;1.00
34135;DHT22;20410;55.578;12.968;2023-04-16T11:27:32;11.10;1.00
34135;DHT22;20410;55.578;12.968;2023-04-16T11:30:03;11.20;1.00
34135;DHT22;20410;55.578;12.968;2023-04-16T11:32:33;11.30;1.00
34135;DHT22;20410;55.578;12.968;2023-04-16T11:35:00;11.40;1.00
34135;DHT22;20410;55.578;12.968;2023-04-16T11:37:33;11.50;1.00
34135;DHT22;20410;55.578;12.968;2023-04-16T11:39:59;11.50;1.00
34135;DHT22;20410;55.578;12.968;2023-04-16T11:42:26;11.60;1.00
34135;DHT22;20410;55.578;12.968;2023-04-16T11:44:57;11.60;1.00
34135;DHT22;20410;55.578;12.968;2023-04-16T11:47:25;11.70;1.00
34135;DHT22;20410;55.578;12.968;2023-04-16T11:49:51;11.60;1.00
34135;DHT22;20410;55.578;12.968;2023-04-16T11:52:31;11.50;1.00
34135;DHT22;20410;55.578;12.968;2023-04-16T11:54:57;11.40;1.00
34135;DHT22;20410;55.578;12.968;2023-04-16T11:57:24;11.50;1.00
34135;DHT22;20410;55.578;12.968;2023-04-16T11:59:51;11.40;1.00
34135;DHT22;20410;55.578;12.968;2023-04-16T12:02:16;11.40;1.00
34135;DHT22;20410;55.578;12.968;2023-04-16T12:04:42;11.50;1.00
34135;DHT22;20410;55.578;12.968;2023-04-16T12:09:33;11.70;1.00
34135;DHT22;20410;55.578;12.968;2023-04-16T12:12:00;11.50;1.00
34135;DHT22;20410;55.578;12.968;2023-04-16T12:14:26;11.50;1.00
34135;DHT22;20410;55.578;12.968;2023-04-16T12:16:52;11.60;1.00
34135;DHT22;20410;55.578;12.968;2023-04-16T12:19:18;11.70;1.00
34135;DHT22;20410;55.578;12.968;2023-04-16T12:21:48;11.80;1.00
34135;DHT22;20410;55.578;12.968;2023-04-16T12:24:16;11.90;1.00
34135;DHT22;20410;55.578;12.968;2023-04-16T12:26:46;12.00;1.00
34135;DHT22;20410;55.578;12.968;2023-04-16T12:29:20;12.20;1.00
34135;DHT22;20410;55.578;12.968;2023-04-16T12:31:47;12.30;1.00
34135;DHT22;20410;55.578;12.968;2023-04-16T12:34:13;12.50;1.00
34135;DHT22;20410;55.578;12.968;2023-04-16T12:36:43;12.60;1.00
34135;DHT22;20410;55.578;12.968;2023-04-16T12:39:09;12.70;1.00
34135;DHT22;20410;55.578;12.968;2023-04-16T12:41:39;12.60;1.00
34135;DHT22;20410;55.578;12.968;2023-04-16T12:44:10;12.70;1.00
34135;DHT22;20410;55.578;12.968;2023-04-16T12:46:43;12.80;1.00
34135;DHT22;20410;55.578;12.968;2023-04-16T12:49:10;12.80;1.00
34135;DHT22;20410;55.578;12.968;2023-04-16T12:51:36;12.80;1.00
34135;DHT22;20410;55.578;12.968;2023-04-16T12:54:03;12.70;1.00
34135;DHT22;20410;55.578;12.968;2023-04-16T12:56:30;12.80;1.00
34135;DHT22;20410;55.578;12.968;2023-04-16T12:58:56;12.70;1.00
34135;DHT22;20410;55.578;12.968;2023-04-16T13:01:22;12.80;1.00
34135;DHT22;20410;55.578;12.968;2023-04-16T13:03:48;12.70;1.00
34135;DHT22;20410;55.578;12.968;2023-04-16T13:06:15;12.60;1.00
34135;DHT22;20410;55.578;12.968;2023-04-16T13:08:44;12.60;1.00
34135;DHT22;20410;55.578;12.968;2023-04-16T13:11:10;12.60;1.00
34135;DHT22;20410;55.578;12.968;2023-04-16T13:13:36;12.60;1.00
34135;DHT22;20410;55.578;12.968;2023-04-16T13:16:01;12.60;1.00
34135;DHT22;20410;55.578;12.968;2023-04-16T13:18:34;12.70;1.00
34135;DHT22;20410;55.578;12.968;2023-04-16T13:21:04;12.70;1.00
34135;DHT22;20410;55.578;12.968;2023-04-16T13:23:30;12.60;1.00
34135;DHT22;20410;55.578;12.968;2023-04-16T13:25:55;12.50;1.00
34135;DHT22;20410;55.578;12.968;2023-04-16T13:28:21;12.60;1.00
34135;DHT22;20410;55.578;12.968;2023-04-16T13:30:47;12.60;1.00
34135;DHT22;20410;55.578;12.968;2023-04-16T13:33:13;12.60;1.00
34135;DHT22;20410;55.578;12.968;2023-04-16T13:35:38;12.70;1.00
34135;DHT22;20410;55.578;12.968;2023-04-16T13:38:04;12.50;1.00
34135;DHT22;20410;55.578;12.968;2023-04-16T13:40:30;12.60;1.00
34135;DHT22;20410;55.578;12.968;2023-04-16T13:42:55;12.70;1.00
34135;DHT22;20410;55.578;12.968;2023-04-16T13:45:21;12.60;1.00
34135;DHT22;20410;55.578;12.968;2023-04-16T13:47:47;12.50;1.00
34135;DHT22;20410;55.578;12.968;2023-04-16T13:50:12;12.50;1.00
34135;DHT22;20410;55.578;12.968;2023-04-16T13:52:38;12.50;1.00
34135;DHT22;20410;55.578;12.968;2023-04-16T13:55:04;12.50;1.00
34135;DHT22;20410;55.578;12.968;2023-04-16T13:57:30;12.40;1.00
34135;DHT22;20410;55.578;12.968;2023-04-16T13:59:56;12.30;1.00
34135;DHT22;20410;55.578;12.968;2023-04-16T14:02:22;12.20;1.00
34135;DHT22;20410;55.578;12.968;2023-04-16T14:04:48;12.20;1.00
34135;DHT22;20410;55.578;12.968;2023-04-16T14:07:14;12.20;1.00
34135;DHT22;20410;55.578;12.968;2023-04-16T14:09:40;12.20;1.00
34135;DHT22;20410;55.578;12.968;2023-04-16T14:12:05;12.20;1.00
34135;DHT22;20410;55.578;12.968;2023-04-16T14:14:31;12.30;1.00
34135;DHT22;20410;55.578;12.968;2023-04-16T14:16:57;12.30;1.00
34135;DHT22;20410;55.578;12.968;2023-04-16T14:19:23;12.30;1.00
34135;DHT22;20410;55.578;12.968;2023-04-16T14:21:49;12.40;1.00
34135;DHT22;20410;55.578;12.968;2023-04-16T14:24:14;12.30;1.00
34135;DHT22;20410;55.578;12.968;2023-04-16T14:26:42;12.20;1.00
34135;DHT22;20410;55.578;12.968;2023-04-16T14:29:07;12.10;1.00
34135;DHT22;20410;55.578;12.968;2023-04-16T14:31:33;12.10;1.00
34135;DHT22;20410;55.578;12.968;2023-04-16T14:33:59;12.10;1.00
34135;DHT22;20410;55.578;12.968;2023-04-16T14:36:24;12.20;1.00
34135;DHT22;20410;55.578;12.968;2023-04-16T14:38:50;12.40;1.00
34135;DHT22;20410;55.578;12.968;2023-04-16T14:41:16;12.40;1.00
34135;DHT22;20410;55.578;12.968;2023-04-16T14:43:41;12.40;1.00
34135;DHT22;20410;55.578;12.968;2023-04-16T14:46:08;12.50;1.00
34135;DHT22;20410;55.578;12.968;2023-04-16T14:48:34;12.50;1.00
34135;DHT22;20410;55.578;12.968;2023-04-16T14:51:00;12.60;1.00
34135;DHT22;20410;55.578;12.968;2023-04-16T14:53:26;12.60;1.00
34135;DHT22;20410;55.578;12.968;2023-04-16T14:55:51;12.60;1.00
34135;DHT22;20410;55.578;12.968;2023-04-16T14:58:17;12.50;1.00
34135;DHT22;20410;55.578;12.968;2023-04-16T15:00:43;12.50;1.00
34135;DHT22;20410;55.578;12.968;2023-04-16T15:03:09;12.50;1.00
34135;DHT22;20410;55.578;12.968;2023-04-16T15:05:35;12.50;1.00
34135;DHT22;20410;55.578;12.968;2023-04-16T15:08:00;12.50;1.00
34135;DHT22;20410;55.578;12.968;2023-04-16T15:10:26;12.50;1.00
34135;DHT22;20410;55.578;12.968;2023-04-16T15:12:52;12.50;1.00
34135;DHT22;20410;55.578;12.968;2023-04-16T15:15:18;12.50;1.00
34135;DHT22;20410;55.578;12.968;2023-04-16T15:17:44;12.50;1.00
34135;DHT22;20410;55.578;12.968;2023-04-16T15:20:10;12.60;1.00
34135;DHT22;20410;55.578;12.968;2023-04-16T15:22:36;12.60;1.00
34135;DHT22;20410;55.578;12.968;2023-04-16T15:25:01;12.60;1.00
34135;DHT22;20410;55.578;12.968;2023-04-16T15:27:27;12.70;1.00
34135;DHT22;20410;55.578;12.968;2023-04-16T15:29:53;12.70;1.00
34135;DHT22;20410;55.578;12.968;2023-04-16T15:32:18;12.70;1.00
34135;DHT22;20410;55.578;12.968;2023-04-16T15:34:44;12.80;1.00
34135;DHT22;20410;55.578;12.968;2023-04-16T15:37:11;12.70;1.00
34135;DHT22;20410;55.578;12.968;2023-04-16T15:39:37;12.70;1.00
34135;DHT22;20410;55.578;12.968;2023-04-16T15:42:05;12.80;1.00